^^
Marion, Virginia Banner
 

Adwolf, VA. Station Historical Data
[ Providing Data Since 6/07/2007 ]
Station Historical Data
Daily Summary for March 19, 2017 Units:  Both    English   Metric
« Previous Day
Next Day »
Daily Weekly Monthly Yearly Custom
  High: Low: Average:
Temperature: 45.3 °F /  7.4 °C 29.3 °F /  -1.5 °C 38.3 °F /  3.5 °C
Dew Point: 33.8 °F /  1 °C 26.3 °F /  -3.2 °C 30.8 °F /  -0.7 °C
Humidity: 92% 55% 75%
Wind Speed: 11.5mph /  18.5km/h - 4.6mph /  7.4km/h
Wind Gust: 11.5mph /  18.5km/h - -
Wind- - SW
Pressure: 30.36 in /  1028 hPa 30.18 in /  1021.9 hPa -
Precipitation: 0.02 in /  0.51 mm    
Historical Graphs
 
 
Tabular Data for March 19, 2017
Time Temperature Dew Point Pressure Wind Wind Speed Wind Gust Humidity Rainfall Rate (Hourly) solar Conditions
00:00 39.3 °F /  4.1 °C 32.3 °F /  0.2 °C 30.20in /  1022.6hPa West 10.4mph /  16.7km/h 10.4mph /  16.7km/h 76% 0.00in /  0mm WeatherDisplay:10.37 W/m2 RA
00:05 38.3 °F /  3.5 °C 32.3 °F /  0.2 °C 30.20in /  1022.6hPa West 11.5mph /  18.5km/h 11.5mph /  18.5km/h 79% 0.00in /  0mm WeatherDisplay:10.37 W/m2 -RA
00:10 37.8 °F /  3.2 °C 33.1 °F /  0.6 °C 30.20in /  1022.6hPa West 3.5mph /  5.6km/h 3.5mph /  5.6km/h 83% 0.00in /  0mm WeatherDisplay:10.37 W/m2 -RA
00:15 37.6 °F /  3.1 °C 33.2 °F /  0.7 °C 30.19in /  1022.2hPa WSW 8.1mph /  13km/h 8.1mph /  13km/h 84% 0.00in /  0mm WeatherDisplay:10.37 W/m2 -RA
00:20 37.7 °F /  3.2 °C 32.7 °F /  0.4 °C 30.19in /  1022.2hPa WNW 5.8mph /  9.3km/h 5.8mph /  9.3km/h 82% 0.00in /  0mm WeatherDisplay:10.37 W/m2 -RA
00:25 37.7 °F /  3.2 °C 32.7 °F /  0.4 °C 30.19in /  1022.2hPa West 11.5mph /  18.5km/h 11.5mph /  18.5km/h 82% 0.00in /  0mm WeatherDisplay:10.37 W/m2 -SN
00:30 37.7 °F /  3.2 °C 33.3 °F /  0.7 °C 30.19in /  1022.2hPa WSW 4.0mph /  6.4km/h 4.0mph /  6.4km/h 84% 0.00in /  0mm WeatherDisplay:10.37 W/m2 -SN
00:35 37.4 °F /  3 °C 33.3 °F /  0.7 °C 30.19in /  1022.2hPa WSW 3.5mph /  5.6km/h 3.5mph /  5.6km/h 85% 0.00in /  0mm WeatherDisplay:10.37 W/m2 -SN
00:40 37.1 °F /  2.8 °C 33.3 °F /  0.7 °C 30.19in /  1022.2hPa WSW 4.0mph /  6.4km/h 4.0mph /  6.4km/h 86% 0.00in /  0mm WeatherDisplay:10.37 W/m2 -SN
00:45 36.9 °F /  2.7 °C 33.4 °F /  0.8 °C 30.19in /  1022.2hPa West 4.6mph /  7.4km/h 4.6mph /  7.4km/h 87% 0.00in /  0mm WeatherDisplay:10.37 W/m2 OVC
00:50 36.7 °F /  2.6 °C 33.2 °F /  0.7 °C 30.19in /  1022.2hPa SW 4.0mph /  6.4km/h 4.0mph /  6.4km/h 87% 0.00in /  0mm WeatherDisplay:10.37 W/m2 OVC
00:55 36.6 °F /  2.6 °C 33.3 °F /  0.7 °C 30.19in /  1022.2hPa West 8.1mph /  13km/h 8.1mph /  13km/h 88% 0.00in /  0mm WeatherDisplay:10.37 W/m2 OVC
01:00 36.4 °F /  2.4 °C 33.4 °F /  0.8 °C 30.19in /  1022.2hPa WSW 3.5mph /  5.6km/h 3.5mph /  5.6km/h 89% 0.00in /  0mm WeatherDisplay:10.37 W/m2 OVC
01:05 36.3 °F /  2.4 °C 33.3 °F /  0.7 °C 30.19in /  1022.2hPa West 5.8mph /  9.3km/h 5.8mph /  9.3km/h 89% 0.00in /  0mm WeatherDisplay:10.37 W/m2 OVC
01:10 36.2 °F /  2.3 °C 33.5 °F /  0.8 °C 30.19in /  1022.2hPa WSW 8.0mph /  12.9km/h 8.0mph /  12.9km/h 90% 0.00in /  0mm WeatherDisplay:10.37 W/m2 OVC
01:15 36.0 °F /  2.2 °C 33.3 °F /  0.7 °C 30.19in /  1022.2hPa WSW 8.1mph /  13km/h 8.1mph /  13km/h 90% 0.00in /  0mm WeatherDisplay:10.37 W/m2 OVC
01:20 35.9 °F /  2.2 °C 33.5 °F /  0.8 °C 30.19in /  1022.2hPa West 3.5mph /  5.6km/h 3.5mph /  5.6km/h 91% 0.00in /  0mm WeatherDisplay:10.37 W/m2 OVC
01:25 35.8 °F /  2.1 °C 33.4 °F /  0.8 °C 30.19in /  1022.2hPa West 2.3mph /  3.7km/h 2.3mph /  3.7km/h 91% 0.00in /  0mm WeatherDisplay:10.37 W/m2 OVC
01:30 35.7 °F /  2.1 °C 33.3 °F /  0.7 °C 30.19in /  1022.2hPa SW 3.0mph /  4.8km/h 3.0mph /  4.8km/h 91% 0.00in /  0mm WeatherDisplay:10.37 W/m2 OVC
01:35 35.8 °F /  2.1 °C 33.7 °F /  0.9 °C 30.19in /  1022.2hPa WSW 3.5mph /  5.6km/h 3.5mph /  5.6km/h 92% 0.00in /  0mm WeatherDisplay:10.37 W/m2 OVC
01:40 35.9 °F /  2.2 °C 33.8 °F /  1 °C 30.18in /  1021.9hPa WNW 5.8mph /  9.3km/h 5.8mph /  9.3km/h 92% 0.00in /  0mm WeatherDisplay:10.37 W/m2 OVC
01:45 35.9 °F /  2.2 °C 33.8 °F /  1 °C 30.19in /  1022.2hPa West 5.8mph /  9.3km/h 5.8mph /  9.3km/h 92% 0.00in /  0mm WeatherDisplay:10.37 W/m2 OVC
01:50 36.0 °F /  2.2 °C 33.6 °F /  0.9 °C 30.19in /  1022.2hPa WSW 5.8mph /  9.3km/h 5.8mph /  9.3km/h 91% 0.00in /  0mm WeatherDisplay:10.37 W/m2 OVC
01:56 36.1 °F /  2.3 °C 33.4 °F /  0.8 °C 30.19in /  1022.2hPa WSW 4.6mph /  7.4km/h 4.6mph /  7.4km/h 90% 0.00in /  0mm WeatherDisplay:10.37 W/m2 OVC
02:01 36.2 °F /  2.3 °C 33.5 °F /  0.8 °C 30.19in /  1022.2hPa SW 6.9mph /  11.1km/h 6.9mph /  11.1km/h 90% 0.00in /  0mm WeatherDisplay:10.37 W/m2 OVC
02:06 36.3 °F /  2.4 °C 33.3 °F /  0.7 °C 30.19in /  1022.2hPa SW 9.2mph /  14.8km/h 9.2mph /  14.8km/h 89% 0.00in /  0mm WeatherDisplay:10.37 W/m2 OVC
02:11 36.2 °F /  2.3 °C 33.5 °F /  0.8 °C 30.19in /  1022.2hPa WSW 5.0mph /  8km/h 5.0mph /  8km/h 90% 0.00in /  0mm WeatherDisplay:10.37 W/m2 OVC
02:16 36.1 °F /  2.3 °C 33.4 °F /  0.8 °C 30.19in /  1022.2hPa SW 3.5mph /  5.6km/h 3.5mph /  5.6km/h 90% 0.01in /  0.25mm WeatherDisplay:10.37 W/m2 RA
02:21 36.1 °F /  2.3 °C 33.4 °F /  0.8 °C 30.19in /  1022.2hPa SW 6.0mph /  9.7km/h 6.0mph /  9.7km/h 90% 0.01in /  0.25mm WeatherDisplay:10.37 W/m2 RA
02:26 36.1 °F /  2.3 °C 33.4 °F /  0.8 °C 30.19in /  1022.2hPa West 6.9mph /  11.1km/h 6.9mph /  11.1km/h 90% 0.01in /  0.25mm WeatherDisplay:10.37 W/m2 -SN
02:31 36.1 °F /  2.3 °C 33.1 °F /  0.6 °C 30.19in /  1022.2hPa SW 5.8mph /  9.3km/h 5.8mph /  9.3km/h 89% 0.01in /  0.25mm WeatherDisplay:10.37 W/m2 -SN
02:36 36.2 °F /  2.3 °C 33.2 °F /  0.7 °C 30.19in /  1022.2hPa WSW 3.5mph /  5.6km/h 3.5mph /  5.6km/h 89% 0.01in /  0.25mm WeatherDisplay:10.37 W/m2 -SN
02:41 36.3 °F /  2.4 °C 33.0 °F /  0.6 °C 30.19in /  1022.2hPa WSW 5.8mph /  9.3km/h 5.8mph /  9.3km/h 88% 0.01in /  0.25mm WeatherDisplay:10.37 W/m2 -SN
02:46 36.3 °F /  2.4 °C 33.0 °F /  0.6 °C 30.20in /  1022.6hPa WNW 3.5mph /  5.6km/h 3.5mph /  5.6km/h 88% 0.01in /  0.25mm WeatherDisplay:10.37 W/m2 OVC
02:51 36.3 °F /  2.4 °C 32.8 °F /  0.4 °C 30.19in /  1022.2hPa WNW 3.5mph /  5.6km/h 3.5mph /  5.6km/h 87% 0.01in /  0.25mm WeatherDisplay:10.37 W/m2 OVC
02:56 36.5 °F /  2.5 °C 32.7 °F /  0.4 °C 30.19in /  1022.2hPa WSW 5.8mph /  9.3km/h 5.8mph /  9.3km/h 86% 0.01in /  0.25mm WeatherDisplay:10.37 W/m2 OVC
03:01 36.7 °F /  2.6 °C 32.6 °F /  0.3 °C 30.19in /  1022.2hPa West 8.1mph /  13km/h 8.1mph /  13km/h 85% 0.01in /  0.25mm WeatherDisplay:10.37 W/m2 OVC
03:06 36.8 °F /  2.7 °C 32.4 °F /  0.2 °C 30.19in /  1022.2hPa WSW 8.1mph /  13km/h 8.1mph /  13km/h 84% 0.01in /  0.25mm WeatherDisplay:10.37 W/m2 OVC
03:11 36.7 °F /  2.6 °C 32.6 °F /  0.3 °C 30.19in /  1022.2hPa WSW 3.5mph /  5.6km/h 3.5mph /  5.6km/h 85% 0.01in /  0.25mm WeatherDisplay:10.37 W/m2 OVC
03:16 36.6 °F /  2.6 °C 32.5 °F /  0.3 °C 30.19in /  1022.2hPa West 6.9mph /  11.1km/h 6.9mph /  11.1km/h 85% 0.00in /  0mm WeatherDisplay:10.37 W/m2 OVC
03:21 36.6 °F /  2.6 °C 32.5 °F /  0.3 °C 30.19in /  1022.2hPa WNW 7.0mph /  11.3km/h 7.0mph /  11.3km/h 85% 0.00in /  0mm WeatherDisplay:10.37 W/m2 OVC
03:26 36.9 °F /  2.7 °C 31.9 °F /  -0.1 °C 30.19in /  1022.2hPa West 6.9mph /  11.1km/h 6.9mph /  11.1km/h 82% 0.00in /  0mm WeatherDisplay:10.37 W/m2 -SN
03:31 37.0 °F /  2.8 °C 31.7 °F /  -0.2 °C 30.19in /  1022.2hPa West 6.0mph /  9.7km/h 6.0mph /  9.7km/h 81% 0.00in /  0mm WeatherDisplay:10.37 W/m2 -SN
03:36 37.0 °F /  2.8 °C 31.7 °F /  -0.2 °C 30.19in /  1022.2hPa West 8.1mph /  13km/h 8.1mph /  13km/h 81% 0.00in /  0mm WeatherDisplay:10.37 W/m2 -SN
03:41 37.0 °F /  2.8 °C 31.7 °F /  -0.2 °C 30.19in /  1022.2hPa West 6.9mph /  11.1km/h 6.9mph /  11.1km/h 81% 0.00in /  0mm WeatherDisplay:10.37 W/m2 -SN
03:46 37.0 °F /  2.8 °C 31.7 °F /  -0.2 °C 30.19in /  1022.2hPa West 5.8mph /  9.3km/h 5.8mph /  9.3km/h 81% 0.00in /  0mm WeatherDisplay:10.37 W/m2 -SN
03:51 36.9 °F /  2.7 °C 31.6 °F /  -0.2 °C 30.19in /  1022.2hPa West 5.8mph /  9.3km/h 5.8mph /  9.3km/h 81% 0.00in /  0mm WeatherDisplay:10.37 W/m2 -SN
04:01 36.8 °F /  2.7 °C 31.5 °F /  -0.3 °C 30.18in /  1021.9hPa West 6.9mph /  11.1km/h 6.9mph /  11.1km/h 81% 0.00in /  0mm WeatherDisplay:10.37 W/m2 -SN
04:06 36.8 °F /  2.7 °C 31.5 °F /  -0.3 °C 30.19in /  1022.2hPa West 9.2mph /  14.8km/h 9.2mph /  14.8km/h 81% 0.00in /  0mm WeatherDisplay:10.37 W/m2 -SN
04:11 36.8 °F /  2.7 °C 31.2 °F /  -0.4 °C 30.18in /  1021.9hPa West 6.9mph /  11.1km/h 6.9mph /  11.1km/h 80% 0.00in /  0mm WeatherDisplay:10.37 W/m2 -SN
04:16 36.8 °F /  2.7 °C 31.2 °F /  -0.4 °C 30.18in /  1021.9hPa West 6.0mph /  9.7km/h 6.0mph /  9.7km/h 80% 0.00in /  0mm WeatherDisplay:10.37 W/m2 -SN
04:21 36.8 °F /  2.7 °C 31.5 °F /  -0.3 °C 30.18in /  1021.9hPa West 5.8mph /  9.3km/h 5.8mph /  9.3km/h 81% 0.00in /  0mm WeatherDisplay:10.37 W/m2 -SN
04:26 36.8 °F /  2.7 °C 31.5 °F /  -0.3 °C 30.18in /  1021.9hPa SSW 3.5mph /  5.6km/h 3.5mph /  5.6km/h 81% 0.00in /  0mm WeatherDisplay:10.37 W/m2 OVC
04:31 36.5 °F /  2.5 °C 32.1 °F /  0.1 °C 30.18in /  1021.9hPa SW 4.6mph /  7.4km/h 4.6mph /  7.4km/h 84% 0.00in /  0mm WeatherDisplay:10.37 W/m2 OVC
04:36 36.0 °F /  2.2 °C 32.2 °F /  0.1 °C 30.18in /  1021.9hPa SW 5.8mph /  9.3km/h 5.8mph /  9.3km/h 86% 0.00in /  0mm WeatherDisplay:10.37 W/m2 OVC
04:46 35.6 °F /  2 °C 32.1 °F /  0.1 °C 30.18in /  1021.9hPa WSW 3.5mph /  5.6km/h 3.5mph /  5.6km/h 87% 0.00in /  0mm WeatherDisplay:10.37 W/m2 -SN
04:51 35.6 °F /  2 °C 32.4 °F /  0.2 °C 30.18in /  1021.9hPa SW 7.0mph /  11.3km/h 7.0mph /  11.3km/h 88% 0.00in /  0mm WeatherDisplay:10.37 W/m2 -SN
04:56 35.4 °F /  1.9 °C 32.2 °F /  0.1 °C 30.18in /  1021.9hPa SW 3.5mph /  5.6km/h 3.5mph /  5.6km/h 88% 0.00in /  0mm WeatherDisplay:10.37 W/m2 -SN
05:01 35.2 °F /  1.8 °C 32.2 °F /  0.1 °C 30.18in /  1021.9hPa WSW 4.6mph /  7.4km/h 4.6mph /  7.4km/h 89% 0.00in /  0mm WeatherDisplay:10.37 W/m2 OVC
05:06 35.2 °F /  1.8 °C 32.2 °F /  0.1 °C 30.18in /  1021.9hPa WSW 4.0mph /  6.4km/h 4.0mph /  6.4km/h 89% 0.00in /  0mm WeatherDisplay:10.37 W/m2 OVC
05:11 35.0 °F /  1.7 °C 32.3 °F /  0.2 °C 30.18in /  1021.9hPa SW 4.6mph /  7.4km/h 4.6mph /  7.4km/h 90% 0.00in /  0mm WeatherDisplay:10.37 W/m2 OVC
05:16 34.9 °F /  1.6 °C 32.5 °F /  0.3 °C 30.18in /  1021.9hPa SW 3.5mph /  5.6km/h 3.5mph /  5.6km/h 91% 0.00in /  0mm WeatherDisplay:10.37 W/m2 OVC
05:21 34.8 °F /  1.6 °C 32.1 °F /  0.1 °C 30.18in /  1021.9hPa SW 4.6mph /  7.4km/h 4.6mph /  7.4km/h 90% 0.00in /  0mm WeatherDisplay:10.37 W/m2 OVC
05:26 34.8 °F /  1.6 °C 32.1 °F /  0.1 °C 30.18in /  1021.9hPa SW 3.5mph /  5.6km/h 3.5mph /  5.6km/h 90% 0.00in /  0mm WeatherDisplay:10.37 W/m2 OVC
05:31 34.9 °F /  1.6 °C 32.2 °F /  0.1 °C 30.18in /  1021.9hPa SSW 3.5mph /  5.6km/h 3.5mph /  5.6km/h 90% 0.00in /  0mm WeatherDisplay:10.37 W/m2 OVC
05:46 35.0 °F /  1.7 °C 32.3 °F /  0.2 °C 30.19in /  1022.2hPa SW 3.5mph /  5.6km/h 3.5mph /  5.6km/h 90% 0.00in /  0mm WeatherDisplay:10.37 W/m2 OVC
05:51 35.0 °F /  1.7 °C 32.3 °F /  0.2 °C 30.20in /  1022.6hPa SSW 3.5mph /  5.6km/h 3.5mph /  5.6km/h 90% 0.00in /  0mm WeatherDisplay:10.37 W/m2 OVC
05:56 35.1 °F /  1.7 °C 32.1 °F /  0.1 °C 30.20in /  1022.6hPa SSW 3.5mph /  5.6km/h 3.5mph /  5.6km/h 89% 0.00in /  0mm WeatherDisplay:10.37 W/m2 OVC
06:01 35.2 °F /  1.8 °C 32.0 °F /  0 °C 30.20in /  1022.6hPa SW 6.9mph /  11.1km/h 6.9mph /  11.1km/h 88% 0.00in /  0mm WeatherDisplay:10.37 W/m2 OVC
06:06 35.5 °F /  1.9 °C 31.4 °F /  -0.3 °C 30.20in /  1022.6hPa WSW 5.8mph /  9.3km/h 5.8mph /  9.3km/h 85% 0.00in /  0mm WeatherDisplay:10.37 W/m2 OVC
06:11 35.7 °F /  2.1 °C 31.6 °F /  -0.2 °C 30.20in /  1022.6hPa SW 3.0mph /  4.8km/h 3.0mph /  4.8km/h 85% 0.00in /  0mm WeatherDisplay:10.37 W/m2 OVC
06:16 35.8 °F /  2.1 °C 31.7 °F /  -0.2 °C 30.21in /  1022.9hPa SW 3.5mph /  5.6km/h 3.5mph /  5.6km/h 85% 0.00in /  0mm WeatherDisplay:10.37 W/m2 OVC
06:21 35.9 °F /  2.2 °C 31.8 °F /  -0.1 °C 30.21in /  1022.9hPa SSW 4.6mph /  7.4km/h 4.6mph /  7.4km/h 85% 0.00in /  0mm WeatherDisplay:10.37 W/m2 OVC
06:26 35.9 °F /  2.2 °C 31.8 °F /  -0.1 °C 30.21in /  1022.9hPa SSW 3.5mph /  5.6km/h 3.5mph /  5.6km/h 85% 0.00in /  0mm WeatherDisplay:10.37 W/m2 OVC
06:31 35.8 °F /  2.1 °C 31.7 °F /  -0.2 °C 30.21in /  1022.9hPa SW 3.5mph /  5.6km/h 3.5mph /  5.6km/h 85% 0.00in /  0mm WeatherDisplay:10.37 W/m2 OVC
06:36 35.8 °F /  2.1 °C 31.7 °F /  -0.2 °C 30.21in /  1022.9hPa SW 4.6mph /  7.4km/h 4.6mph /  7.4km/h 85% 0.00in /  0mm WeatherDisplay:10.37 W/m2 OVC
06:41 35.9 °F /  2.2 °C 31.5 °F /  -0.3 °C 30.21in /  1022.9hPa SW 6.0mph /  9.7km/h 6.0mph /  9.7km/h 84% 0.00in /  0mm WeatherDisplay:10.37 W/m2 -SN
06:46 36.1 °F /  2.3 °C 31.4 °F /  -0.3 °C 30.21in /  1022.9hPa West 4.6mph /  7.4km/h 4.6mph /  7.4km/h 83% 0.00in /  0mm WeatherDisplay:10.37 W/m2 -SN
06:51 36.2 °F /  2.3 °C 31.2 °F /  -0.4 °C 30.21in /  1022.9hPa WSW 4.6mph /  7.4km/h 4.6mph /  7.4km/h 82% 0.00in /  0mm WeatherDisplay:10.37 W/m2 -SN
07:01 36.1 °F /  2.3 °C 31.4 °F /  -0.3 °C 30.22in /  1023.2hPa SSW 4.6mph /  7.4km/h 4.6mph /  7.4km/h 83% 0.00in /  0mm WeatherDisplay:10.37 W/m2 -SN
07:06 36.0 °F /  2.2 °C 31.6 °F /  -0.2 °C 30.21in /  1022.9hPa SW 6.9mph /  11.1km/h 6.9mph /  11.1km/h 84% 0.00in /  0mm WeatherDisplay:10.37 W/m2 -SN
07:11 36.0 °F /  2.2 °C 31.6 °F /  -0.2 °C 30.22in /  1023.2hPa SW 3.5mph /  5.6km/h 3.5mph /  5.6km/h 84% 0.00in /  0mm WeatherDisplay:10.37 W/m2 -SN
07:16 35.9 °F /  2.2 °C 31.5 °F /  -0.3 °C 30.22in /  1023.2hPa SW 2.3mph /  3.7km/h 2.3mph /  3.7km/h 84% 0.00in /  0mm WeatherDisplay:10.37 W/m2 -SN
07:21 36.0 °F /  2.2 °C 31.3 °F /  -0.4 °C 30.23in /  1023.6hPa SW 3.5mph /  5.6km/h 3.5mph /  5.6km/h 83% 0.00in /  0mm WeatherDisplay:10.37 W/m2 OVC
07:26 36.1 °F /  2.3 °C 31.4 °F /  -0.3 °C 30.23in /  1023.6hPa SW 1.2mph /  1.9km/h 1.2mph /  1.9km/h 83% 0.00in /  0mm WeatherDisplay:10.37 W/m2 OVC
07:31 36.1 °F /  2.3 °C 31.4 °F /  -0.3 °C 30.23in /  1023.6hPa SW 2.3mph /  3.7km/h 2.3mph /  3.7km/h 83% 0.00in /  0mm WeatherDisplay:10.37 W/m2 OVC
07:36 36.1 °F /  2.3 °C 31.7 °F /  -0.2 °C 30.23in /  1023.6hPa SW 1.2mph /  1.9km/h 1.2mph /  1.9km/h 84% 0.00in /  0mm WeatherDisplay:10.37 W/m2 OVC
07:41 36.0 °F /  2.2 °C 31.9 °F /  -0.1 °C 30.24in /  1023.9hPa NE 3.5mph /  5.6km/h 3.5mph /  5.6km/h 85% 0.00in /  0mm WeatherDisplay:10.37 W/m2 -RA
07:46 35.9 °F /  2.2 °C 31.8 °F /  -0.1 °C 30.24in /  1023.9hPa NNE 5.8mph /  9.3km/h 5.8mph /  9.3km/h 85% 0.00in /  0mm WeatherDisplay:10.37 W/m2 -RA
07:51 35.7 °F /  2.1 °C 31.9 °F /  -0.1 °C 30.24in /  1023.9hPa ENE 2.3mph /  3.7km/h 2.3mph /  3.7km/h 86% 0.00in /  0mm WeatherDisplay:10.37 W/m2 -RA
07:56 35.6 °F /  2 °C 32.1 °F /  0.1 °C 30.24in /  1023.9hPa NE 3.5mph /  5.6km/h 3.5mph /  5.6km/h 87% 0.00in /  0mm WeatherDisplay:10.37 W/m2 -RA
08:01 35.5 °F /  1.9 °C 32.0 °F /  0 °C 30.25in /  1024.3hPa NE 2.3mph /  3.7km/h 2.3mph /  3.7km/h 87% 0.00in /  0mm WeatherDisplay:10.37 W/m2 -RA
08:06 35.5 °F /  1.9 °C 31.7 °F /  -0.2 °C 30.25in /  1024.3hPa East 2.3mph /  3.7km/h 2.3mph /  3.7km/h 86% 0.00in /  0mm WeatherDisplay:10.37 W/m2 -RA
08:11 35.5 °F /  1.9 °C 32.0 °F /  0 °C 30.25in /  1024.3hPa East 1.2mph /  1.9km/h 1.2mph /  1.9km/h 87% 0.00in /  0mm WeatherDisplay:10.37 W/m2 -RA
08:21 35.7 °F /  2.1 °C 31.3 °F /  -0.4 °C 30.26in /  1024.6hPa West 10.4mph /  16.7km/h 10.4mph /  16.7km/h 84% 0.00in /  0mm WeatherDisplay:10.37 W/m2 -SN
08:26 35.7 °F /  2.1 °C 31.9 °F /  -0.1 °C 30.26in /  1024.6hPa West 3.5mph /  5.6km/h 3.5mph /  5.6km/h 86% 0.00in /  0mm WeatherDisplay:10.37 W/m2 -SN
08:31 35.6 °F /  2 °C 31.5 °F /  -0.3 °C 30.27in /  1024.9hPa SW 8.0mph /  12.9km/h 8.0mph /  12.9km/h 85% 0.00in /  0mm WeatherDisplay:10.37 W/m2 -SN
08:36 35.8 °F /  2.1 °C 31.4 °F /  -0.3 °C 30.27in /  1024.9hPa West 3.5mph /  5.6km/h 3.5mph /  5.6km/h 84% 0.00in /  0mm WeatherDisplay:10.37 W/m2 -SN
08:41 36.1 °F /  2.3 °C 31.1 °F /  -0.5 °C 30.27in /  1024.9hPa WNW 5.8mph /  9.3km/h 5.8mph /  9.3km/h 82% 0.00in /  0mm WeatherDisplay:10.37 W/m2 -SN
08:46 36.3 °F /  2.4 °C 31.3 °F /  -0.4 °C 30.28in /  1025.3hPa West 3.5mph /  5.6km/h 3.5mph /  5.6km/h 82% 0.00in /  0mm WeatherDisplay:10.37 W/m2 -SN
08:51 36.4 °F /  2.4 °C 30.5 °F /  -0.8 °C 30.27in /  1024.9hPa West 3.5mph /  5.6km/h 3.5mph /  5.6km/h 79% 0.00in /  0mm WeatherDisplay:10.37 W/m2 -SN
08:56 36.6 °F /  2.6 °C 30.3 °F /  -0.9 °C 30.28in /  1025.3hPa North 8.1mph /  13km/h 8.1mph /  13km/h 78% 0.00in /  0mm WeatherDisplay:10.37 W/m2 -SN
09:01 36.7 °F /  2.6 °C 30.4 °F /  -0.9 °C 30.28in /  1025.3hPa North 3.5mph /  5.6km/h 3.5mph /  5.6km/h 78% 0.00in /  0mm WeatherDisplay:10.37 W/m2 OVC
09:06 36.8 °F /  2.7 °C 30.2 °F /  -1 °C 30.29in /  1025.6hPa NNW 3.5mph /  5.6km/h 3.5mph /  5.6km/h 77% 0.00in /  0mm WeatherDisplay:10.37 W/m2 OVC
09:11 37.0 °F /  2.8 °C 30.1 °F /  -1.1 °C 30.28in /  1025.3hPa West 8.1mph /  13km/h 8.1mph /  13km/h 76% 0.00in /  0mm WeatherDisplay:10.37 W/m2 OVC
09:16 37.2 °F /  2.9 °C 30.3 °F /  -0.9 °C 30.29in /  1025.6hPa North 3.5mph /  5.6km/h 3.5mph /  5.6km/h 76% 0.00in /  0mm WeatherDisplay:10.37 W/m2 OVC
09:21 37.3 °F /  2.9 °C 30.1 °F /  -1.1 °C 30.29in /  1025.6hPa North 3.5mph /  5.6km/h 3.5mph /  5.6km/h 75% 0.00in /  0mm WeatherDisplay:10.37 W/m2 OVC
09:26 37.4 °F /  3 °C 30.2 °F /  -1 °C 30.29in /  1025.6hPa North 3.5mph /  5.6km/h 3.5mph /  5.6km/h 75% 0.00in /  0mm WeatherDisplay:10.37 W/m2 OVC
09:31 37.5 °F /  3.1 °C 30.3 °F /  -0.9 °C 30.29in /  1025.6hPa West 3.5mph /  5.6km/h 3.5mph /  5.6km/h 75% 0.00in /  0mm WeatherDisplay:10.37 W/m2 OVC
09:36 37.6 °F /  3.1 °C 30.7 °F /  -0.7 °C 30.30in /  1026hPa West 3.5mph /  5.6km/h 3.5mph /  5.6km/h 76% 0.00in /  0mm WeatherDisplay:10.37 W/m2 OVC
09:41 37.7 °F /  3.2 °C 30.4 °F /  -0.9 °C 30.30in /  1026hPa SW 2.3mph /  3.7km/h 2.3mph /  3.7km/h 75% 0.00in /  0mm WeatherDisplay:10.37 W/m2 OVC
09:46 37.7 °F /  3.2 °C 30.8 °F /  -0.7 °C 30.30in /  1026hPa WSW 3.5mph /  5.6km/h 3.5mph /  5.6km/h 76% 0.00in /  0mm WeatherDisplay:10.37 W/m2 OVC
09:51 37.8 °F /  3.2 °C 30.9 °F /  -0.6 °C 30.30in /  1026hPa WNW 3.0mph /  4.8km/h 3.0mph /  4.8km/h 76% 0.00in /  0mm WeatherDisplay:10.37 W/m2 OVC
09:56 37.9 °F /  3.3 °C 31.0 °F /  -0.6 °C 30.31in /  1026.3hPa West 6.0mph /  9.7km/h 6.0mph /  9.7km/h 76% 0.00in /  0mm WeatherDisplay:10.37 W/m2 OVC
10:01 37.8 °F /  3.2 °C 30.9 °F /  -0.6 °C 30.31in /  1026.3hPa West 6.9mph /  11.1km/h 6.9mph /  11.1km/h 76% 0.00in /  0mm WeatherDisplay:10.37 W/m2 OVC
10:06 37.7 °F /  3.2 °C 31.1 °F /  -0.5 °C 30.31in /  1026.3hPa WNW 8.1mph /  13km/h 8.1mph /  13km/h 77% 0.00in /  0mm WeatherDisplay:10.37 W/m2 OVC
10:11 37.6 °F /  3.1 °C 31.0 °F /  -0.6 °C 30.32in /  1026.6hPa West 6.9mph /  11.1km/h 6.9mph /  11.1km/h 77% 0.00in /  0mm WeatherDisplay:10.37 W/m2 OVC
10:16 37.4 °F /  3 °C 31.4 °F /  -0.3 °C 30.32in /  1026.6hPa West 8.0mph /  12.9km/h 8.0mph /  12.9km/h 79% 0.00in /  0mm WeatherDisplay:10.37 W/m2 OVC
10:21 37.2 °F /  2.9 °C 31.6 °F /  -0.2 °C 30.32in /  1026.6hPa North 6.0mph /  9.7km/h 6.0mph /  9.7km/h 80% 0.00in /  0mm WeatherDisplay:10.37 W/m2 OVC
10:26 37.1 °F /  2.8 °C 31.2 °F /  -0.4 °C 30.32in /  1026.6hPa NNE 10.4mph /  16.7km/h 10.4mph /  16.7km/h 79% 0.00in /  0mm WeatherDisplay:10.37 W/m2 OVC
10:31 37.1 °F /  2.8 °C 31.8 °F /  -0.1 °C 30.32in /  1026.6hPa North 8.1mph /  13km/h 8.1mph /  13km/h 81% 0.00in /  0mm WeatherDisplay:10.37 W/m2 OVC
10:36 37.2 °F /  2.9 °C 31.9 °F /  -0.1 °C 30.32in /  1026.6hPa WNW 4.6mph /  7.4km/h 4.6mph /  7.4km/h 81% 0.00in /  0mm WeatherDisplay:10.37 W/m2 OVC
10:41 37.3 °F /  2.9 °C 31.3 °F /  -0.4 °C 30.32in /  1026.6hPa North 5.8mph /  9.3km/h 5.8mph /  9.3km/h 79% 0.00in /  0mm WeatherDisplay:10.37 W/m2 OVC
10:46 37.5 °F /  3.1 °C 31.2 °F /  -0.4 °C 30.32in /  1026.6hPa West 3.5mph /  5.6km/h 3.5mph /  5.6km/h 78% 0.00in /  0mm WeatherDisplay:10.37 W/m2 OVC
10:51 37.8 °F /  3.2 °C 31.8 °F /  -0.1 °C 30.32in /  1026.6hPa West 3.5mph /  5.6km/h 3.5mph /  5.6km/h 79% 0.00in /  0mm WeatherDisplay:10.37 W/m2 OVC
10:56 37.9 °F /  3.3 °C 31.0 °F /  -0.6 °C 30.32in /  1026.6hPa SSW 6.9mph /  11.1km/h 6.9mph /  11.1km/h 76% 0.00in /  0mm WeatherDisplay:10.37 W/m2 OVC
11:01 38.0 °F /  3.3 °C 30.7 °F /  -0.7 °C 30.33in /  1027hPa WSW 5.8mph /  9.3km/h 5.8mph /  9.3km/h 75% 0.00in /  0mm WeatherDisplay:10.37 W/m2 OVC
11:06 38.1 °F /  3.4 °C 31.2 °F /  -0.4 °C 30.33in /  1027hPa NW 3.5mph /  5.6km/h 3.5mph /  5.6km/h 76% 0.00in /  0mm WeatherDisplay:10.37 W/m2 OVC
11:11 38.2 °F /  3.4 °C 31.6 °F /  -0.2 °C 30.33in /  1027hPa NNE 3.5mph /  5.6km/h 3.5mph /  5.6km/h 77% 0.00in /  0mm WeatherDisplay:10.37 W/m2 OVC
11:16 38.3 °F /  3.5 °C 31.0 °F /  -0.6 °C 30.33in /  1027hPa North 1.2mph /  1.9km/h 1.2mph /  1.9km/h 75% 0.00in /  0mm WeatherDisplay:10.37 W/m2 OVC
11:21 38.3 °F /  3.5 °C 31.0 °F /  -0.6 °C 30.33in /  1027hPa West 8.1mph /  13km/h 8.1mph /  13km/h 75% 0.00in /  0mm WeatherDisplay:10.37 W/m2 OVC
11:26 38.3 °F /  3.5 °C 30.7 °F /  -0.7 °C 30.33in /  1027hPa West 3.5mph /  5.6km/h 3.5mph /  5.6km/h 74% 0.00in /  0mm WeatherDisplay:10.37 W/m2 OVC
11:31 38.5 °F /  3.6 °C 31.6 °F /  -0.2 °C 30.34in /  1027.3hPa NW 3.5mph /  5.6km/h 3.5mph /  5.6km/h 76% 0.00in /  0mm WeatherDisplay:10.37 W/m2 OVC
11:36 38.8 °F /  3.8 °C 31.5 °F /  -0.3 °C 30.34in /  1027.3hPa NW 6.9mph /  11.1km/h 6.9mph /  11.1km/h 75% 0.00in /  0mm WeatherDisplay:10.37 W/m2 OVC
11:41 39.1 °F /  3.9 °C 30.8 °F /  -0.7 °C 30.34in /  1027.3hPa North 5.8mph /  9.3km/h 5.8mph /  9.3km/h 72% 0.00in /  0mm WeatherDisplay:10.37 W/m2 OVC
11:46 39.1 °F /  3.9 °C 31.1 °F /  -0.5 °C 30.34in /  1027.3hPa NNE 5.0mph /  8km/h 5.0mph /  8km/h 73% 0.00in /  0mm WeatherDisplay:10.37 W/m2 OVC
11:51 39.2 °F /  4 °C 30.9 °F /  -0.6 °C 30.34in /  1027.3hPa North 5.8mph /  9.3km/h 5.8mph /  9.3km/h 72% 0.00in /  0mm WeatherDisplay:10.37 W/m2 OVC
11:56 39.3 °F /  4.1 °C 30.6 °F /  -0.8 °C 30.34in /  1027.3hPa North 8.1mph /  13km/h 8.1mph /  13km/h 71% 0.00in /  0mm WeatherDisplay:10.37 W/m2 OVC
12:01 39.3 °F /  4.1 °C 30.3 °F /  -0.9 °C 30.34in /  1027.3hPa West 9.2mph /  14.8km/h 9.2mph /  14.8km/h 70% 0.00in /  0mm WeatherDisplay:10.37 W/m2 OVC
12:06 39.4 °F /  4.1 °C 30.4 °F /  -0.9 °C 30.35in /  1027.7hPa North 8.1mph /  13km/h 8.1mph /  13km/h 70% 0.00in /  0mm WeatherDisplay:10.37 W/m2 OVC
12:11 39.7 °F /  4.3 °C 31.0 °F /  -0.6 °C 30.35in /  1027.7hPa North 8.1mph /  13km/h 8.1mph /  13km/h 71% 0.00in /  0mm WeatherDisplay:10.37 W/m2 OVC
12:16 39.7 °F /  4.3 °C 30.3 °F /  -0.9 °C 30.35in /  1027.7hPa North 10.4mph /  16.7km/h 10.4mph /  16.7km/h 69% 0.00in /  0mm WeatherDisplay:10.37 W/m2 OVC
12:21 39.8 °F /  4.3 °C 30.4 °F /  -0.9 °C 30.35in /  1027.7hPa WNW 9.2mph /  14.8km/h 9.2mph /  14.8km/h 69% 0.00in /  0mm WeatherDisplay:10.37 W/m2 OVC
12:26 39.9 °F /  4.4 °C 29.4 °F /  -1.4 °C 30.34in /  1027.3hPa West 8.1mph /  13km/h 8.1mph /  13km/h 66% 0.00in /  0mm WeatherDisplay:10.37 W/m2 OVC
12:31 40.1 °F /  4.5 °C 30.7 °F /  -0.7 °C 30.35in /  1027.7hPa North 8.1mph /  13km/h 8.1mph /  13km/h 69% 0.00in /  0mm WeatherDisplay:10.37 W/m2 OVC
12:36 40.5 °F /  4.7 °C 30.7 °F /  -0.7 °C 30.34in /  1027.3hPa West 8.1mph /  13km/h 8.1mph /  13km/h 68% 0.00in /  0mm WeatherDisplay:10.37 W/m2 OVC
12:41 40.7 °F /  4.8 °C 30.2 °F /  -1 °C 30.34in /  1027.3hPa West 10.0mph /  16.1km/h 10.0mph /  16.1km/h 66% 0.00in /  0mm WeatherDisplay:10.37 W/m2 OVC
12:46 40.6 °F /  4.8 °C 30.1 °F /  -1.1 °C 30.34in /  1027.3hPa NNE 5.8mph /  9.3km/h 5.8mph /  9.3km/h 66% 0.00in /  0mm WeatherDisplay:10.37 W/m2 OVC
12:51 40.9 °F /  4.9 °C 29.6 °F /  -1.3 °C 30.34in /  1027.3hPa West 4.0mph /  6.4km/h 4.0mph /  6.4km/h 64% 0.00in /  0mm WeatherDisplay:10.37 W/m2 OVC
12:56 41.0 °F /  5 °C 29.7 °F /  -1.3 °C 30.35in /  1027.7hPa North 4.0mph /  6.4km/h 4.0mph /  6.4km/h 64% 0.00in /  0mm WeatherDisplay:10.37 W/m2 OVC
13:01 40.9 °F /  4.9 °C 29.2 °F /  -1.6 °C 30.35in /  1027.7hPa NNE 6.9mph /  11.1km/h 6.9mph /  11.1km/h 63% 0.00in /  0mm WeatherDisplay:10.37 W/m2 BKN
13:06 40.9 °F /  4.9 °C 29.2 °F /  -1.6 °C 30.34in /  1027.3hPa North 5.0mph /  8km/h 5.0mph /  8km/h 63% 0.00in /  0mm WeatherDisplay:10.37 W/m2 BKN
13:11 41.2 °F /  5.1 °C 29.9 °F /  -1.2 °C 30.35in /  1027.7hPa North 10.0mph /  16.1km/h 10.0mph /  16.1km/h 64% 0.00in /  0mm WeatherDisplay:10.37 W/m2 BKN
13:16 40.9 °F /  4.9 °C 30.7 °F /  -0.7 °C 30.34in /  1027.3hPa North 9.2mph /  14.8km/h 9.2mph /  14.8km/h 67% 0.00in /  0mm WeatherDisplay:10.37 W/m2 BKN
13:21 40.6 °F /  4.8 °C 29.3 °F /  -1.5 °C 30.34in /  1027.3hPa WNW 9.2mph /  14.8km/h 9.2mph /  14.8km/h 64% 0.00in /  0mm WeatherDisplay:10.37 W/m2 BKN
13:26 40.7 °F /  4.8 °C 29.4 °F /  -1.4 °C 30.34in /  1027.3hPa SW 4.6mph /  7.4km/h 4.6mph /  7.4km/h 64% 0.00in /  0mm WeatherDisplay:10.37 W/m2 BKN
13:31 41.5 °F /  5.3 °C 29.8 °F /  -1.2 °C 30.34in /  1027.3hPa South 4.0mph /  6.4km/h 4.0mph /  6.4km/h 63% 0.00in /  0mm WeatherDisplay:10.37 W/m2 BKN
13:36 42.0 °F /  5.6 °C 30.7 °F /  -0.7 °C 30.34in /  1027.3hPa NNE 3.5mph /  5.6km/h 3.5mph /  5.6km/h 64% 0.00in /  0mm WeatherDisplay:10.37 W/m2 BKN
13:41 42.2 °F /  5.7 °C 29.7 °F /  -1.3 °C 30.34in /  1027.3hPa North 8.1mph /  13km/h 8.1mph /  13km/h 61% 0.00in /  0mm WeatherDisplay:10.37 W/m2 OVC
13:46 42.2 °F /  5.7 °C 29.7 °F /  -1.3 °C 30.34in /  1027.3hPa SW 2.3mph /  3.7km/h 2.3mph /  3.7km/h 61% 0.00in /  0mm WeatherDisplay:10.37 W/m2 OVC
13:51 42.4 °F /  5.8 °C 29.9 °F /  -1.2 °C 30.34in /  1027.3hPa North 8.1mph /  13km/h 8.1mph /  13km/h 61% 0.00in /  0mm WeatherDisplay:10.37 W/m2 OVC
13:56 42.3 °F /  5.7 °C 30.6 °F /  -0.8 °C 30.34in /  1027.3hPa WNW 5.8mph /  9.3km/h 5.8mph /  9.3km/h 63% 0.00in /  0mm WeatherDisplay:10.37 W/m2 OVC
14:01 42.3 °F /  5.7 °C 30.9 °F /  -0.6 °C 30.33in /  1027hPa North 8.0mph /  12.9km/h 8.0mph /  12.9km/h 64% 0.00in /  0mm WeatherDisplay:10.37 W/m2 OVC
14:06 42.0 °F /  5.6 °C 29.9 °F /  -1.2 °C 30.34in /  1027.3hPa North 8.1mph /  13km/h 8.1mph /  13km/h 62% 0.00in /  0mm WeatherDisplay:10.37 W/m2 OVC
14:11 41.9 °F /  5.5 °C 29.8 °F /  -1.2 °C 30.34in /  1027.3hPa NNE 2.3mph /  3.7km/h 2.3mph /  3.7km/h 62% 0.00in /  0mm WeatherDisplay:10.37 W/m2 OVC
14:16 42.1 °F /  5.6 °C 30.4 °F /  -0.9 °C 30.33in /  1027hPa NW 4.6mph /  7.4km/h 4.6mph /  7.4km/h 63% 0.00in /  0mm WeatherDisplay:10.37 W/m2 OVC
14:21 42.0 °F /  5.6 °C 29.9 °F /  -1.2 °C 30.33in /  1027hPa West 11.5mph /  18.5km/h 11.5mph /  18.5km/h 62% 0.00in /  0mm WeatherDisplay:10.37 W/m2 OVC
14:26 41.9 °F /  5.5 °C 30.2 °F /  -1 °C 30.33in /  1027hPa WNW 9.2mph /  14.8km/h 9.2mph /  14.8km/h 63% 0.00in /  0mm WeatherDisplay:10.37 W/m2 OVC
14:31 42.0 °F /  5.6 °C 31.0 °F /  -0.6 °C 30.33in /  1027hPa North 3.5mph /  5.6km/h 3.5mph /  5.6km/h 65% 0.00in /  0mm WeatherDisplay:10.37 W/m2 OVC
14:36 42.1 °F /  5.6 °C 30.8 °F /  -0.7 °C 30.33in /  1027hPa North 6.9mph /  11.1km/h 6.9mph /  11.1km/h 64% 0.00in /  0mm WeatherDisplay:10.37 W/m2 OVC
14:41 42.3 °F /  5.7 °C 30.2 °F /  -1 °C 30.33in /  1027hPa North 8.1mph /  13km/h 8.1mph /  13km/h 62% 0.00in /  0mm WeatherDisplay:10.37 W/m2 OVC
14:46 42.2 °F /  5.7 °C 30.1 °F /  -1.1 °C 30.33in /  1027hPa NNE 7.0mph /  11.3km/h 7.0mph /  11.3km/h 62% 0.01in /  0.25mm WeatherDisplay:10.37 W/m2 RA
14:51 42.2 °F /  5.7 °C 28.8 °F /  -1.8 °C 30.33in /  1027hPa NNE 6.9mph /  11.1km/h 6.9mph /  11.1km/h 59% 0.01in /  0.25mm WeatherDisplay:10.37 W/m2 RA
14:56 42.6 °F /  5.9 °C 29.2 °F /  -1.6 °C 30.32in /  1026.6hPa North 6.9mph /  11.1km/h 6.9mph /  11.1km/h 59% 0.01in /  0.25mm WeatherDisplay:10.37 W/m2 OVC
15:02 43.6 °F /  6.4 °C 30.6 °F /  -0.8 °C 30.32in /  1026.6hPa NNW 5.8mph /  9.3km/h 5.8mph /  9.3km/h 60% 0.01in /  0.25mm WeatherDisplay:10.37 W/m2 OVC
15:07 43.8 °F /  6.6 °C 29.9 °F /  -1.2 °C 30.32in /  1026.6hPa West 6.9mph /  11.1km/h 6.9mph /  11.1km/h 58% 0.01in /  0.25mm WeatherDisplay:10.37 W/m2 OVC
15:12 43.9 °F /  6.6 °C 30.0 °F /  -1.1 °C 30.32in /  1026.6hPa WNW 2.3mph /  3.7km/h 2.3mph /  3.7km/h 58% 0.01in /  0.25mm WeatherDisplay:10.37 W/m2 OVC
15:22 43.8 °F /  6.6 °C 29.1 °F /  -1.6 °C 30.32in /  1026.6hPa WSW 3.5mph /  5.6km/h 3.5mph /  5.6km/h 56% 0.01in /  0.25mm WeatherDisplay:10.37 W/m2 BKN
15:27 44.0 °F /  6.7 °C 29.7 °F /  -1.3 °C 30.32in /  1026.6hPa SE 3.5mph /  5.6km/h 3.5mph /  5.6km/h 57% 0.01in /  0.25mm WeatherDisplay:10.37 W/m2 BKN
15:32 44.4 °F /  6.9 °C 30.1 °F /  -1.1 °C 30.32in /  1026.6hPa South 2.3mph /  3.7km/h 2.3mph /  3.7km/h 57% 0.01in /  0.25mm WeatherDisplay:10.37 W/m2 BKN
15:37 44.7 °F /  7.1 °C 30.4 °F /  -0.9 °C 30.32in /  1026.6hPa SW 2.3mph /  3.7km/h 2.3mph /  3.7km/h 57% 0.01in /  0.25mm WeatherDisplay:10.37 W/m2 BKN
15:42 44.7 °F /  7.1 °C 29.5 °F /  -1.4 °C 30.32in /  1026.6hPa NNE 8.1mph /  13km/h 8.1mph /  13km/h 55% 0.01in /  0.25mm WeatherDisplay:10.37 W/m2 SCT
15:47 44.2 °F /  6.8 °C 29.9 °F /  -1.2 °C 30.32in /  1026.6hPa WSW 3.5mph /  5.6km/h 3.5mph /  5.6km/h 57% 0.00in /  0mm WeatherDisplay:10.37 W/m2 SCT
15:52 44.5 °F /  6.9 °C 30.2 °F /  -1 °C 30.32in /  1026.6hPa West 3.5mph /  5.6km/h 3.5mph /  5.6km/h 57% 0.00in /  0mm WeatherDisplay:10.37 W/m2 SCT
15:57 45.0 °F /  7.2 °C 30.6 °F /  -0.8 °C 30.32in /  1026.6hPa West 5.8mph /  9.3km/h 5.8mph /  9.3km/h 57% 0.00in /  0mm WeatherDisplay:10.37 W/m2 SCT
16:02 45.2 °F /  7.3 °C 29.9 °F /  -1.2 °C 30.32in /  1026.6hPa SW 4.6mph /  7.4km/h 4.6mph /  7.4km/h 55% 0.00in /  0mm WeatherDisplay:10.37 W/m2 BKN
16:07 45.3 °F /  7.4 °C 30.9 °F /  -0.6 °C 30.32in /  1026.6hPa WNW 6.0mph /  9.7km/h 6.0mph /  9.7km/h 57% 0.00in /  0mm WeatherDisplay:10.37 W/m2 BKN
16:12 44.6 °F /  7 °C 30.7 °F /  -0.7 °C 30.32in /  1026.6hPa WNW 8.1mph /  13km/h 8.1mph /  13km/h 58% 0.00in /  0mm WeatherDisplay:10.37 W/m2 BKN
16:17 44.3 °F /  6.8 °C 30.8 °F /  -0.7 °C 30.32in /  1026.6hPa WNW 5.8mph /  9.3km/h 5.8mph /  9.3km/h 59% 0.00in /  0mm WeatherDisplay:10.37 W/m2 BKN
16:22 44.4 °F /  6.9 °C 30.9 °F /  -0.6 °C 30.32in /  1026.6hPa NNW 11.5mph /  18.5km/h 11.5mph /  18.5km/h 59% 0.00in /  0mm WeatherDisplay:10.37 W/m2 BKN
16:27 44.3 °F /  6.8 °C 30.8 °F /  -0.7 °C 30.32in /  1026.6hPa West 4.6mph /  7.4km/h 4.6mph /  7.4km/h 59% 0.00in /  0mm WeatherDisplay:10.37 W/m2 BKN
16:32 44.4 °F /  6.9 °C 30.9 °F /  -0.6 °C 30.32in /  1026.6hPa WNW 5.8mph /  9.3km/h 5.8mph /  9.3km/h 59% 0.00in /  0mm WeatherDisplay:10.37 W/m2 BKN
16:37 44.2 °F /  6.8 °C 30.3 °F /  -0.9 °C 30.32in /  1026.6hPa West 5.8mph /  9.3km/h 5.8mph /  9.3km/h 58% 0.00in /  0mm WeatherDisplay:10.37 W/m2 BKN
16:42 44.1 °F /  6.7 °C 29.8 °F /  -1.2 °C 30.32in /  1026.6hPa WSW 3.5mph /  5.6km/h 3.5mph /  5.6km/h 57% 0.00in /  0mm WeatherDisplay:10.37 W/m2 SCT
16:47 44.3 °F /  6.8 °C 30.0 °F /  -1.1 °C 30.32in /  1026.6hPa West 6.0mph /  9.7km/h 6.0mph /  9.7km/h 57% 0.00in /  0mm WeatherDisplay:10.37 W/m2 SCT
16:52 44.3 °F /  6.8 °C 30.0 °F /  -1.1 °C 30.32in /  1026.6hPa WSW 5.8mph /  9.3km/h 5.8mph /  9.3km/h 57% 0.00in /  0mm WeatherDisplay:10.37 W/m2 SCT
16:57 44.4 °F /  6.9 °C 30.1 °F /  -1.1 °C 30.32in /  1026.6hPa WSW 3.5mph /  5.6km/h 3.5mph /  5.6km/h 57% 0.00in /  0mm WeatherDisplay:10.37 W/m2 SCT
17:02 44.6 °F /  7 °C 30.7 °F /  -0.7 °C 30.32in /  1026.6hPa West 3.5mph /  5.6km/h 3.5mph /  5.6km/h 58% 0.00in /  0mm WeatherDisplay:10.37 W/m2 BKN
17:07 44.6 °F /  7 °C 30.3 °F /  -0.9 °C 30.32in /  1026.6hPa West 3.5mph /  5.6km/h 3.5mph /  5.6km/h 57% 0.00in /  0mm WeatherDisplay:10.37 W/m2 BKN
17:12 44.6 °F /  7 °C 30.3 °F /  -0.9 °C 30.32in /  1026.6hPa West 6.9mph /  11.1km/h 6.9mph /  11.1km/h 57% 0.00in /  0mm WeatherDisplay:10.37 W/m2 BKN
17:17 44.5 °F /  6.9 °C 31.0 °F /  -0.6 °C 30.32in /  1026.6hPa West 5.8mph /  9.3km/h 5.8mph /  9.3km/h 59% 0.00in /  0mm WeatherDisplay:10.37 W/m2 BKN
17:22 44.6 °F /  7 °C 31.5 °F /  -0.3 °C 30.32in /  1026.6hPa WNW 6.9mph /  11.1km/h 6.9mph /  11.1km/h 60% 0.00in /  0mm WeatherDisplay:10.37 W/m2 OVC
17:27 44.3 °F /  6.8 °C 31.7 °F /  -0.2 °C 30.32in /  1026.6hPa West 7.0mph /  11.3km/h 7.0mph /  11.3km/h 61% 0.00in /  0mm WeatherDisplay:10.37 W/m2 OVC
17:32 43.8 °F /  6.6 °C 30.8 °F /  -0.7 °C 30.33in /  1027hPa West 8.0mph /  12.9km/h 8.0mph /  12.9km/h 60% 0.00in /  0mm WeatherDisplay:10.37 W/m2 OVC
17:37 43.6 °F /  6.4 °C 31.0 °F /  -0.6 °C 30.32in /  1026.6hPa WNW 3.5mph /  5.6km/h 3.5mph /  5.6km/h 61% 0.00in /  0mm WeatherDisplay:10.37 W/m2 OVC
17:42 43.7 °F /  6.5 °C 30.7 °F /  -0.7 °C 30.32in /  1026.6hPa West 3.5mph /  5.6km/h 3.5mph /  5.6km/h 60% 0.00in /  0mm WeatherDisplay:10.37 W/m2 OVC
17:47 43.8 °F /  6.6 °C 30.8 °F /  -0.7 °C 30.32in /  1026.6hPa NNE 7.0mph /  11.3km/h 7.0mph /  11.3km/h 60% 0.00in /  0mm WeatherDisplay:10.37 W/m2 OVC
17:52 43.7 °F /  6.5 °C 30.3 °F /  -0.9 °C 30.32in /  1026.6hPa North 10.4mph /  16.7km/h 10.4mph /  16.7km/h 59% 0.00in /  0mm WeatherDisplay:10.37 W/m2 OVC
17:57 43.6 °F /  6.4 °C 29.7 °F /  -1.3 °C 30.32in /  1026.6hPa SW 5.0mph /  8km/h 5.0mph /  8km/h 58% 0.00in /  0mm WeatherDisplay:10.37 W/m2 OVC
18:02 43.7 °F /  6.5 °C 30.3 °F /  -0.9 °C 30.32in /  1026.6hPa West 6.0mph /  9.7km/h 6.0mph /  9.7km/h 59% 0.00in /  0mm WeatherDisplay:10.37 W/m2 OVC
18:07 43.7 °F /  6.5 °C 30.3 °F /  -0.9 °C 30.32in /  1026.6hPa West 3.5mph /  5.6km/h 3.5mph /  5.6km/h 59% 0.00in /  0mm WeatherDisplay:10.37 W/m2 OVC
18:12 43.6 °F /  6.4 °C 30.2 °F /  -1 °C 30.32in /  1026.6hPa North 8.1mph /  13km/h 8.1mph /  13km/h 59% 0.00in /  0mm WeatherDisplay:10.37 W/m2 OVC
18:17 43.6 °F /  6.4 °C 30.6 °F /  -0.8 °C 30.32in /  1026.6hPa NNE 7.0mph /  11.3km/h 7.0mph /  11.3km/h 60% 0.00in /  0mm WeatherDisplay:10.37 W/m2 OVC
18:22 43.6 °F /  6.4 °C 30.6 °F /  -0.8 °C 30.31in /  1026.3hPa WNW 4.6mph /  7.4km/h 4.6mph /  7.4km/h 60% 0.00in /  0mm WeatherDisplay:10.37 W/m2 BKN
18:27 43.7 °F /  6.5 °C 30.3 °F /  -0.9 °C 30.32in /  1026.6hPa North 5.8mph /  9.3km/h 5.8mph /  9.3km/h 59% 0.00in /  0mm WeatherDisplay:10.37 W/m2 BKN
18:32 43.4 °F /  6.3 °C 30.4 °F /  -0.9 °C 30.32in /  1026.6hPa WNW 3.5mph /  5.6km/h 3.5mph /  5.6km/h 60% 0.00in /  0mm WeatherDisplay:10.37 W/m2 BKN
18:37 43.2 °F /  6.2 °C 30.2 °F /  -1 °C 30.32in /  1026.6hPa West 5.8mph /  9.3km/h 5.8mph /  9.3km/h 60% 0.00in /  0mm WeatherDisplay:10.37 W/m2 BKN
18:42 43.0 °F /  6.1 °C 30.4 °F /  -0.9 °C 30.32in /  1026.6hPa WNW 3.5mph /  5.6km/h 3.5mph /  5.6km/h 61% 0.00in /  0mm WeatherDisplay:10.37 W/m2 BKN
18:47 42.8 °F /  6 °C 30.6 °F /  -0.8 °C 30.32in /  1026.6hPa WNW 3.5mph /  5.6km/h 3.5mph /  5.6km/h 62% 0.00in /  0mm WeatherDisplay:10.37 W/m2 BKN
18:52 42.8 °F /  6 °C 31.0 °F /  -0.6 °C 30.32in /  1026.6hPa WNW 3.5mph /  5.6km/h 3.5mph /  5.6km/h 63% 0.00in /  0mm WeatherDisplay:10.37 W/m2 BKN
18:57 42.7 °F /  5.9 °C 30.5 °F /  -0.8 °C 30.32in /  1026.6hPa West 5.8mph /  9.3km/h 5.8mph /  9.3km/h 62% 0.00in /  0mm WeatherDisplay:10.37 W/m2 BKN
19:02 42.5 °F /  5.8 °C 30.7 °F /  -0.7 °C 30.32in /  1026.6hPa West 6.0mph /  9.7km/h 6.0mph /  9.7km/h 63% 0.00in /  0mm WeatherDisplay:10.37 W/m2 OVC
19:07 42.3 °F /  5.7 °C 30.6 °F /  -0.8 °C 30.32in /  1026.6hPa West 5.8mph /  9.3km/h 5.8mph /  9.3km/h 63% 0.00in /  0mm WeatherDisplay:10.37 W/m2 OVC
19:12 42.2 °F /  5.7 °C 30.5 °F /  -0.8 °C 30.33in /  1027hPa West 7.0mph /  11.3km/h 7.0mph /  11.3km/h 63% 0.00in /  0mm WeatherDisplay:10.37 W/m2 OVC
19:17 42.0 °F /  5.6 °C 30.7 °F /  -0.7 °C 30.33in /  1027hPa West 3.5mph /  5.6km/h 3.5mph /  5.6km/h 64% 0.00in /  0mm WeatherDisplay:10.37 W/m2 OVC
19:22 42.0 °F /  5.6 °C 30.7 °F /  -0.7 °C 30.33in /  1027hPa West 2.3mph /  3.7km/h 2.3mph /  3.7km/h 64% 0.00in /  0mm WeatherDisplay:10.37 W/m2 OVC
19:27 41.8 °F /  5.4 °C 30.5 °F /  -0.8 °C 30.33in /  1027hPa West 3.5mph /  5.6km/h 3.5mph /  5.6km/h 64% 0.00in /  0mm WeatherDisplay:10.37 W/m2 OVC
19:32 41.6 °F /  5.3 °C 30.3 °F /  -0.9 °C 30.33in /  1027hPa West 2.3mph /  3.7km/h 2.3mph /  3.7km/h 64% 0.00in /  0mm WeatherDisplay:10.37 W/m2 OVC
19:37 41.4 °F /  5.2 °C 30.1 °F /  -1.1 °C 30.33in /  1027hPa West 3.5mph /  5.6km/h 3.5mph /  5.6km/h 64% 0.00in /  0mm WeatherDisplay:10.37 W/m2 OVC
19:42 41.2 °F /  5.1 °C 30.3 °F /  -0.9 °C 30.33in /  1027hPa WNW 3.5mph /  5.6km/h 3.5mph /  5.6km/h 65% 0.00in /  0mm WeatherDisplay:10.37 W/m2 BKN
19:47 41.0 °F /  5 °C 30.1 °F /  -1.1 °C 30.33in /  1027hPa WNW 2.3mph /  3.7km/h 2.3mph /  3.7km/h 65% 0.00in /  0mm WeatherDisplay:10.37 W/m2 BKN
19:52 40.8 °F /  4.9 °C 30.3 °F /  -0.9 °C 30.33in /  1027hPa WNW 1.2mph /  1.9km/h 1.2mph /  1.9km/h 66% 0.00in /  0mm WeatherDisplay:10.37 W/m2 BKN
19:57 40.6 °F /  4.8 °C 30.1 °F /  -1.1 °C 30.33in /  1027hPa WNW 2.3mph /  3.7km/h 2.3mph /  3.7km/h 66% 0.00in /  0mm WeatherDisplay:10.37 W/m2 BKN
20:02 40.4 °F /  4.7 °C 29.9 °F /  -1.2 °C 30.33in /  1027hPa WNW 3.5mph /  5.6km/h 3.5mph /  5.6km/h 66% 0.00in /  0mm WeatherDisplay:10.37 W/m2 SCT
20:07 40.2 °F /  4.6 °C 30.1 °F /  -1.1 °C 30.34in /  1027.3hPa WNW 2.3mph /  3.7km/h 2.3mph /  3.7km/h 67% 0.00in /  0mm WeatherDisplay:10.37 W/m2 SCT
20:12 40.0 °F /  4.4 °C 29.9 °F /  -1.2 °C 30.33in /  1027hPa WNW 2.3mph /  3.7km/h 2.3mph /  3.7km/h 67% 0.00in /  0mm WeatherDisplay:10.37 W/m2 SCT
20:17 39.7 °F /  4.3 °C 30.0 °F /  -1.1 °C 30.33in /  1027hPa WNW 2.3mph /  3.7km/h 2.3mph /  3.7km/h 68% 0.00in /  0mm WeatherDisplay:10.37 W/m2 SCT
20:22 39.5 °F /  4.2 °C 29.8 °F /  -1.2 °C 30.34in /  1027.3hPa Calm     68% 0.00in /  0mm WeatherDisplay:10.37 W/m2 SCT
20:27 39.2 °F /  4 °C 29.8 °F /  -1.2 °C 30.34in /  1027.3hPa WNW 1.2mph /  1.9km/h 1.2mph /  1.9km/h 69% 0.00in /  0mm WeatherDisplay:10.37 W/m2 SCT
20:32 38.9 °F /  3.8 °C 29.6 °F /  -1.3 °C 30.34in /  1027.3hPa WNW 1.2mph /  1.9km/h 1.2mph /  1.9km/h 69% 0.00in /  0mm WeatherDisplay:10.37 W/m2 SCT
20:37 38.6 °F /  3.7 °C 29.6 °F /  -1.3 °C 30.34in /  1027.3hPa Calm     70% 0.00in /  0mm WeatherDisplay:10.37 W/m2 SCT
20:42 38.3 °F /  3.5 °C 29.7 °F /  -1.3 °C 30.34in /  1027.3hPa Calm     71% 0.00in /  0mm WeatherDisplay:10.37 W/m2 SCT
20:47 37.9 °F /  3.3 °C 29.6 °F /  -1.3 °C 30.34in /  1027.3hPa Calm     72% 0.00in /  0mm WeatherDisplay:10.37 W/m2 SCT
20:52 37.4 °F /  3 °C 29.5 °F /  -1.4 °C 30.34in /  1027.3hPa Calm     73% 0.00in /  0mm WeatherDisplay:10.37 W/m2 SCT
20:57 37.0 °F /  2.8 °C 29.1 °F /  -1.6 °C 30.34in /  1027.3hPa Calm     73% 0.00in /  0mm WeatherDisplay:10.37 W/m2 SCT
21:02 36.5 °F /  2.5 °C 29.0 °F /  -1.7 °C 30.34in /  1027.3hPa WNW 1.2mph /  1.9km/h 1.2mph /  1.9km/h 74% 0.00in /  0mm WeatherDisplay:10.37 W/m2 SCT
21:07 36.1 °F /  2.3 °C 28.9 °F /  -1.7 °C 30.35in /  1027.7hPa Calm     75% 0.00in /  0mm WeatherDisplay:10.37 W/m2 SCT
21:12 35.8 °F /  2.1 °C 28.9 °F /  -1.7 °C 30.35in /  1027.7hPa Calm     76% 0.00in /  0mm WeatherDisplay:10.37 W/m2 SCT
21:17 35.5 °F /  1.9 °C 29.0 °F /  -1.7 °C 30.35in /  1027.7hPa Calm     77% 0.00in /  0mm WeatherDisplay:10.37 W/m2 SCT
21:22 35.2 °F /  1.8 °C 29.0 °F /  -1.7 °C 30.35in /  1027.7hPa Calm   0.2mph /  0.3km/h 78% 0.00in /  0mm WeatherDisplay:10.37 W/m2 CLR
21:27 35.0 °F /  1.7 °C 28.8 °F /  -1.8 °C 30.35in /  1027.7hPa Calm     78% 0.00in /  0mm WeatherDisplay:10.37 W/m2 CLR
21:32 34.8 °F /  1.6 °C 28.9 °F /  -1.7 °C 30.35in /  1027.7hPa Calm     79% 0.00in /  0mm WeatherDisplay:10.37 W/m2 CLR
21:37 34.6 °F /  1.4 °C 28.7 °F /  -1.8 °C 30.35in /  1027.7hPa WNW 1.0mph /  1.6km/h 1.0mph /  1.6km/h 79% 0.00in /  0mm WeatherDisplay:10.37 W/m2 CLR
21:42 34.3 °F /  1.3 °C 28.7 °F /  -1.8 °C 30.36in /  1028hPa Calm     80% 0.00in /  0mm WeatherDisplay:10.37 W/m2 SCT
21:47 34.0 °F /  1.1 °C 28.4 °F /  -2 °C 30.36in /  1028hPa Calm     80% 0.00in /  0mm WeatherDisplay:10.37 W/m2 SCT
21:52 33.7 °F /  0.9 °C 28.5 °F /  -1.9 °C 30.36in /  1028hPa WNW 1.2mph /  1.9km/h 1.2mph /  1.9km/h 81% 0.00in /  0mm WeatherDisplay:10.37 W/m2 SCT
21:57 33.3 °F /  0.7 °C 28.1 °F /  -2.2 °C 30.35in /  1027.7hPa WNW 1.0mph /  1.6km/h 1.0mph /  1.6km/h 81% 0.00in /  0mm WeatherDisplay:10.37 W/m2 SCT
22:02 33.1 °F /  0.6 °C 28.2 °F /  -2.1 °C 30.36in /  1028hPa Calm     82% 0.00in /  0mm WeatherDisplay:10.37 W/m2 SCT
22:07 32.8 °F /  0.4 °C 27.9 °F /  -2.3 °C 30.36in /  1028hPa Calm     82% 0.00in /  0mm WeatherDisplay:10.37 W/m2 SCT
22:12 32.5 °F /  0.3 °C 27.9 °F /  -2.3 °C 30.36in /  1028hPa Calm     83% 0.00in /  0mm WeatherDisplay:10.37 W/m2 SCT
22:17 32.3 °F /  0.2 °C 28.0 °F /  -2.2 °C 30.36in /  1028hPa WNW 1.2mph /  1.9km/h 1.2mph /  1.9km/h 84% 0.00in /  0mm WeatherDisplay:10.37 W/m2 SCT
22:22 32.1 °F /  0.1 °C 27.8 °F /  -2.3 °C 30.36in /  1028hPa Calm     84% 0.00in /  0mm WeatherDisplay:10.37 W/m2 CLR
22:27 32.0 °F /  0 °C 28.0 °F /  -2.2 °C 30.36in /  1028hPa Calm     85% 0.00in /  0mm WeatherDisplay:10.37 W/m2 CLR
22:32 31.9 °F /  -0.1 °C 27.9 °F /  -2.3 °C 30.35in /  1027.7hPa WNW 1.2mph /  1.9km/h 1.2mph /  1.9km/h 85% 0.00in /  0mm WeatherDisplay:10.37 W/m2 CLR
22:37 31.8 °F /  -0.1 °C 27.8 °F /  -2.3 °C 30.35in /  1027.7hPa WNW 2.3mph /  3.7km/h 2.3mph /  3.7km/h 85% 0.00in /  0mm WeatherDisplay:10.37 W/m2 CLR
22:42 31.6 °F /  -0.2 °C 27.9 °F /  -2.3 °C 30.35in /  1027.7hPa WNW 1.2mph /  1.9km/h 1.2mph /  1.9km/h 86% 0.00in /  0mm WeatherDisplay:10.37 W/m2 CLR
22:47 31.5 °F /  -0.3 °C 27.8 °F /  -2.3 °C 30.35in /  1027.7hPa WNW 1.2mph /  1.9km/h 1.2mph /  1.9km/h 86% 0.00in /  0mm WeatherDisplay:10.37 W/m2 CLR
22:52 31.5 °F /  -0.3 °C 27.8 °F /  -2.3 °C 30.35in /  1027.7hPa WNW 1.2mph /  1.9km/h 1.2mph /  1.9km/h 86% 0.00in /  0mm WeatherDisplay:10.37 W/m2 CLR
22:57 31.4 °F /  -0.3 °C 27.7 °F /  -2.4 °C 30.35in /  1027.7hPa Calm     86% 0.00in /  0mm WeatherDisplay:10.37 W/m2 CLR
23:02 31.3 °F /  -0.4 °C 27.6 °F /  -2.4 °C 30.35in /  1027.7hPa WNW 1.2mph /  1.9km/h   86% 0.00in /  0mm WeatherDisplay:10.37 W/m2 CLR
23:07 31.1 °F /  -0.5 °C 27.4 °F /  -2.6 °C 30.35in /  1027.7hPa Calm     86% 0.00in /  0mm WeatherDisplay:10.37 W/m2 CLR
23:12 30.9 °F /  -0.6 °C 27.2 °F /  -2.7 °C 30.35in /  1027.7hPa Calm     86% 0.00in /  0mm WeatherDisplay:10.37 W/m2 CLR
23:17 30.6 °F /  -0.8 °C 27.2 °F /  -2.7 °C 30.35in /  1027.7hPa Calm     87% 0.00in /  0mm WeatherDisplay:10.37 W/m2 CLR
23:22 30.3 °F /  -0.9 °C 26.9 °F /  -2.8 °C 30.35in /  1027.7hPa Calm     87% 0.00in /  0mm WeatherDisplay:10.37 W/m2 CLR
23:27 30.2 °F /  -1 °C 27.0 °F /  -2.8 °C 30.35in /  1027.7hPa Calm     88% 0.00in /  0mm WeatherDisplay:10.37 W/m2 CLR
23:32 30.1 °F /  -1.1 °C 26.9 °F /  -2.8 °C 30.35in /  1027.7hPa WNW 1.2mph /  1.9km/h 1.2mph /  1.9km/h 88% 0.00in /  0mm WeatherDisplay:10.37 W/m2 CLR
23:37 30.0 °F /  -1.1 °C 27.1 °F /  -2.7 °C 30.35in /  1027.7hPa WNW 1.2mph /  1.9km/h 1.2mph /  1.9km/h 89% 0.00in /  0mm WeatherDisplay:10.37 W/m2 CLR
23:42 29.9 °F /  -1.2 °C 27.0 °F /  -2.8 °C 30.35in /  1027.7hPa Calm     89% 0.00in /  0mm WeatherDisplay:10.37 W/m2 CLR
23:52 29.5 °F /  -1.4 °C 26.3 °F /  -3.2 °C 30.35in /  1027.7hPa Calm     88% 0.00in /  0mm WeatherDisplay:10.37 W/m2 CLR
23:57 29.3 °F /  -1.5 °C 26.4 °F /  -3.1 °C 30.35in /  1027.7hPa Calm     89% 0.00in /  0mm WeatherDisplay:10.37 W/m2 CLR
Smyth Weather
Compliments of Weather Underground - 3 mb